sensor_id;sensor_type;location;lat;lon;timestamp;P1;durP1;ratioP1;P2;durP2;ratioP2
48881;SDS011;57063;51.406;-2.402;2023-02-13T00:01:57;14.75;;;11.00;;
48881;SDS011;57063;51.406;-2.402;2023-02-13T00:04:22;16.23;;;9.73;;
48881;SDS011;57063;51.406;-2.402;2023-02-13T00:06:48;15.80;;;10.73;;
48881;SDS011;57063;51.406;-2.402;2023-02-13T00:09:13;15.77;;;10.50;;
48881;SDS011;57063;51.406;-2.402;2023-02-13T00:11:39;16.88;;;11.32;;
48881;SDS011;57063;51.406;-2.402;2023-02-13T00:14:05;17.33;;;11.43;;
48881;SDS011;57063;51.406;-2.402;2023-02-13T00:16:31;18.27;;;10.88;;
48881;SDS011;57063;51.406;-2.402;2023-02-13T00:18:56;16.13;;;11.23;;
48881;SDS011;57063;51.406;-2.402;2023-02-13T00:21:21;16.75;;;10.98;;
48881;SDS011;57063;51.406;-2.402;2023-02-13T00:23:47;19.33;;;11.50;;
48881;SDS011;57063;51.406;-2.402;2023-02-13T00:26:13;17.27;;;10.77;;
48881;SDS011;57063;51.406;-2.402;2023-02-13T00:28:40;18.38;;;11.43;;
48881;SDS011;57063;51.406;-2.402;2023-02-13T00:31:07;15.70;;;10.35;;
48881;SDS011;57063;51.406;-2.402;2023-02-13T00:33:34;18.55;;;11.32;;
48881;SDS011;57063;51.406;-2.402;2023-02-13T00:36:22;19.48;;;12.02;;
48881;SDS011;57063;51.406;-2.402;2023-02-13T00:38:46;14.80;;;10.65;;
48881;SDS011;57063;51.406;-2.402;2023-02-13T00:41:12;16.75;;;11.32;;
48881;SDS011;57063;51.406;-2.402;2023-02-13T00:43:40;18.42;;;11.23;;
48881;SDS011;57063;51.406;-2.402;2023-02-13T00:46:06;15.95;;;11.00;;
48881;SDS011;57063;51.406;-2.402;2023-02-13T00:48:32;20.42;;;11.63;;
48881;SDS011;57063;51.406;-2.402;2023-02-13T00:50:58;17.40;;;11.13;;
48881;SDS011;57063;51.406;-2.402;2023-02-13T00:53:25;18.08;;;12.18;;
48881;SDS011;57063;51.406;-2.402;2023-02-13T00:55:51;18.90;;;12.25;;
48881;SDS011;57063;51.406;-2.402;2023-02-13T00:58:18;19.02;;;12.55;;
48881;SDS011;57063;51.406;-2.402;2023-02-13T01:00:44;23.08;;;12.18;;
48881;SDS011;57063;51.406;-2.402;2023-02-13T01:03:11;16.10;;;11.45;;
48881;SDS011;57063;51.406;-2.402;2023-02-13T01:05:41;19.40;;;12.02;;
48881;SDS011;57063;51.406;-2.402;2023-02-13T01:08:08;18.40;;;12.48;;
48881;SDS011;57063;51.406;-2.402;2023-02-13T01:10:35;16.77;;;11.55;;
48881;SDS011;57063;51.406;-2.402;2023-02-13T01:13:01;20.00;;;12.48;;
48881;SDS011;57063;51.406;-2.402;2023-02-13T01:15:27;19.60;;;12.07;;
48881;SDS011;57063;51.406;-2.402;2023-02-13T01:17:53;19.80;;;13.48;;
48881;SDS011;57063;51.406;-2.402;2023-02-13T01:20:21;21.00;;;12.20;;
48881;SDS011;57063;51.406;-2.402;2023-02-13T01:22:47;20.85;;;12.73;;
48881;SDS011;57063;51.406;-2.402;2023-02-13T01:25:13;21.65;;;11.75;;
48881;SDS011;57063;51.406;-2.402;2023-02-13T01:27:39;20.27;;;12.30;;
48881;SDS011;57063;51.406;-2.402;2023-02-13T01:30:05;21.50;;;13.30;;
48881;SDS011;57063;51.406;-2.402;2023-02-13T01:32:36;19.73;;;11.82;;
48881;SDS011;57063;51.406;-2.402;2023-02-13T01:35:02;18.98;;;12.65;;
48881;SDS011;57063;51.406;-2.402;2023-02-13T01:37:28;20.10;;;12.20;;
48881;SDS011;57063;51.406;-2.402;2023-02-13T01:39:53;17.98;;;11.68;;
48881;SDS011;57063;51.406;-2.402;2023-02-13T01:42:24;21.08;;;12.38;;
48881;SDS011;57063;51.406;-2.402;2023-02-13T01:44:52;18.15;;;12.63;;
48881;SDS011;57063;51.406;-2.402;2023-02-13T01:47:26;17.83;;;11.63;;
48881;SDS011;57063;51.406;-2.402;2023-02-13T01:50:18;17.90;;;11.90;;
48881;SDS011;57063;51.406;-2.402;2023-02-13T01:55:34;17.33;;;11.98;;
48881;SDS011;57063;51.406;-2.402;2023-02-13T01:58:07;17.73;;;12.15;;
48881;SDS011;57063;51.406;-2.402;2023-02-13T02:00:36;17.73;;;11.90;;
48881;SDS011;57063;51.406;-2.402;2023-02-13T02:03:13;19.13;;;11.77;;
48881;SDS011;57063;51.406;-2.402;2023-02-13T02:05:43;19.25;;;11.88;;
48881;SDS011;57063;51.406;-2.402;2023-02-13T02:08:10;19.20;;;12.63;;
48881;SDS011;57063;51.406;-2.402;2023-02-13T02:10:38;22.92;;;12.20;;
48881;SDS011;57063;51.406;-2.402;2023-02-13T02:13:12;20.90;;;12.13;;
48881;SDS011;57063;51.406;-2.402;2023-02-13T02:15:39;19.90;;;11.85;;
48881;SDS011;57063;51.406;-2.402;2023-02-13T02:18:16;17.70;;;11.90;;
48881;SDS011;57063;51.406;-2.402;2023-02-13T02:34:55;21.60;;;12.88;;
48881;SDS011;57063;51.406;-2.402;2023-02-13T02:45:36;19.58;;;12.75;;
48881;SDS011;57063;51.406;-2.402;2023-02-13T02:48:11;18.85;;;13.30;;
48881;SDS011;57063;51.406;-2.402;2023-02-13T02:56:29;24.08;;;13.88;;
48881;SDS011;57063;51.406;-2.402;2023-02-13T02:59:03;22.13;;;13.60;;
48881;SDS011;57063;51.406;-2.402;2023-02-13T03:02:04;21.92;;;14.13;;
48881;SDS011;57063;51.406;-2.402;2023-02-13T03:04:52;22.63;;;13.85;;
48881;SDS011;57063;51.406;-2.402;2023-02-13T03:07:39;20.88;;;12.93;;
48881;SDS011;57063;51.406;-2.402;2023-02-13T03:10:08;22.42;;;12.73;;
48881;SDS011;57063;51.406;-2.402;2023-02-13T03:13:04;22.17;;;13.38;;
48881;SDS011;57063;51.406;-2.402;2023-02-13T03:15:45;23.17;;;13.30;;
48881;SDS011;57063;51.406;-2.402;2023-02-13T03:18:32;23.33;;;14.60;;
48881;SDS011;57063;51.406;-2.402;2023-02-13T03:33:23;19.80;;;12.90;;
48881;SDS011;57063;51.406;-2.402;2023-02-13T03:36:32;20.35;;;12.95;;
48881;SDS011;57063;51.406;-2.402;2023-02-13T03:42:33;19.17;;;12.02;;
48881;SDS011;57063;51.406;-2.402;2023-02-13T03:45:06;22.25;;;12.95;;
48881;SDS011;57063;51.406;-2.402;2023-02-13T03:47:56;19.70;;;12.90;;
48881;SDS011;57063;51.406;-2.402;2023-02-13T03:50:25;20.77;;;13.35;;
48881;SDS011;57063;51.406;-2.402;2023-02-13T03:52:54;18.42;;;12.15;;
48881;SDS011;57063;51.406;-2.402;2023-02-13T03:55:26;17.33;;;12.18;;
48881;SDS011;57063;51.406;-2.402;2023-02-13T04:01:29;20.63;;;12.38;;
48881;SDS011;57063;51.406;-2.402;2023-02-13T04:06:33;20.70;;;12.85;;
48881;SDS011;57063;51.406;-2.402;2023-02-13T04:09:03;20.47;;;13.00;;
48881;SDS011;57063;51.406;-2.402;2023-02-13T04:14:04;20.10;;;13.52;;
48881;SDS011;57063;51.406;-2.402;2023-02-13T04:19:26;25.50;;;13.32;;
48881;SDS011;57063;51.406;-2.402;2023-02-13T04:21:56;25.35;;;13.27;;
48881;SDS011;57063;51.406;-2.402;2023-02-13T04:24:24;22.95;;;12.65;;
48881;SDS011;57063;51.406;-2.402;2023-02-13T04:26:51;22.77;;;13.57;;
48881;SDS011;57063;51.406;-2.402;2023-02-13T04:29:18;23.73;;;12.35;;
48881;SDS011;57063;51.406;-2.402;2023-02-13T04:31:46;23.70;;;13.40;;
48881;SDS011;57063;51.406;-2.402;2023-02-13T04:34:11;19.63;;;12.90;;
48881;SDS011;57063;51.406;-2.402;2023-02-13T04:36:37;23.80;;;13.38;;
48881;SDS011;57063;51.406;-2.402;2023-02-13T04:39:03;22.75;;;12.95;;
48881;SDS011;57063;51.406;-2.402;2023-02-13T04:41:28;28.02;;;13.43;;
48881;SDS011;57063;51.406;-2.402;2023-02-13T04:43:54;22.20;;;13.75;;
48881;SDS011;57063;51.406;-2.402;2023-02-13T04:46:20;22.63;;;12.85;;
48881;SDS011;57063;51.406;-2.402;2023-02-13T04:48:45;19.77;;;12.82;;
48881;SDS011;57063;51.406;-2.402;2023-02-13T04:51:11;24.55;;;13.70;;
48881;SDS011;57063;51.406;-2.402;2023-02-13T04:53:37;19.58;;;12.93;;
48881;SDS011;57063;51.406;-2.402;2023-02-13T04:56:05;21.80;;;14.25;;
48881;SDS011;57063;51.406;-2.402;2023-02-13T04:58:31;21.10;;;12.85;;
48881;SDS011;57063;51.406;-2.402;2023-02-13T05:00:57;25.27;;;14.35;;
48881;SDS011;57063;51.406;-2.402;2023-02-13T05:03:22;20.98;;;12.63;;
48881;SDS011;57063;51.406;-2.402;2023-02-13T05:05:48;25.70;;;15.38;;
48881;SDS011;57063;51.406;-2.402;2023-02-13T05:08:14;21.92;;;13.40;;
48881;SDS011;57063;51.406;-2.402;2023-02-13T05:10:39;23.00;;;13.68;;
48881;SDS011;57063;51.406;-2.402;2023-02-13T05:13:05;22.58;;;13.18;;
48881;SDS011;57063;51.406;-2.402;2023-02-13T05:15:30;21.75;;;12.95;;
48881;SDS011;57063;51.406;-2.402;2023-02-13T05:17:56;22.67;;;13.35;;
48881;SDS011;57063;51.406;-2.402;2023-02-13T05:20:22;23.08;;;13.20;;
48881;SDS011;57063;51.406;-2.402;2023-02-13T05:22:48;25.52;;;14.40;;
48881;SDS011;57063;51.406;-2.402;2023-02-13T05:25:34;22.80;;;14.07;;
48881;SDS011;57063;51.406;-2.402;2023-02-13T05:28:01;22.80;;;14.50;;
48881;SDS011;57063;51.406;-2.402;2023-02-13T05:30:28;19.92;;;13.00;;
48881;SDS011;57063;51.406;-2.402;2023-02-13T05:32:53;20.70;;;13.48;;
48881;SDS011;57063;51.406;-2.402;2023-02-13T05:35:22;23.35;;;14.48;;
48881;SDS011;57063;51.406;-2.402;2023-02-13T05:37:47;23.08;;;13.65;;
48881;SDS011;57063;51.406;-2.402;2023-02-13T05:40:13;26.88;;;14.77;;
48881;SDS011;57063;51.406;-2.402;2023-02-13T05:42:39;26.77;;;14.68;;
48881;SDS011;57063;51.406;-2.402;2023-02-13T05:45:06;28.13;;;14.25;;
48881;SDS011;57063;51.406;-2.402;2023-02-13T05:47:32;26.50;;;14.45;;
48881;SDS011;57063;51.406;-2.402;2023-02-13T05:49:58;22.73;;;13.73;;
48881;SDS011;57063;51.406;-2.402;2023-02-13T05:52:23;21.60;;;13.75;;
48881;SDS011;57063;51.406;-2.402;2023-02-13T05:54:49;22.00;;;13.90;;
48881;SDS011;57063;51.406;-2.402;2023-02-13T05:57:14;21.65;;;13.55;;
48881;SDS011;57063;51.406;-2.402;2023-02-13T05:59:40;23.35;;;14.18;;
48881;SDS011;57063;51.406;-2.402;2023-02-13T06:02:05;26.08;;;14.48;;
48881;SDS011;57063;51.406;-2.402;2023-02-13T06:04:31;23.38;;;14.32;;
48881;SDS011;57063;51.406;-2.402;2023-02-13T06:06:56;21.50;;;13.98;;
48881;SDS011;57063;51.406;-2.402;2023-02-13T06:09:22;20.75;;;12.73;;
48881;SDS011;57063;51.406;-2.402;2023-02-13T06:11:47;27.10;;;14.45;;
48881;SDS011;57063;51.406;-2.402;2023-02-13T06:14:13;26.25;;;14.77;;
48881;SDS011;57063;51.406;-2.402;2023-02-13T06:16:39;26.55;;;15.25;;
48881;SDS011;57063;51.406;-2.402;2023-02-13T06:19:05;22.75;;;14.70;;
48881;SDS011;57063;51.406;-2.402;2023-02-13T06:21:31;28.48;;;14.20;;
48881;SDS011;57063;51.406;-2.402;2023-02-13T06:24:05;24.00;;;14.30;;
48881;SDS011;57063;51.406;-2.402;2023-02-13T06:26:32;24.92;;;14.93;;
48881;SDS011;57063;51.406;-2.402;2023-02-13T06:28:58;24.05;;;14.27;;
48881;SDS011;57063;51.406;-2.402;2023-02-13T06:31:24;22.77;;;14.63;;
48881;SDS011;57063;51.406;-2.402;2023-02-13T06:33:49;25.45;;;15.70;;
48881;SDS011;57063;51.406;-2.402;2023-02-13T06:36:15;24.70;;;14.40;;
48881;SDS011;57063;51.406;-2.402;2023-02-13T06:38:41;22.45;;;14.43;;
48881;SDS011;57063;51.406;-2.402;2023-02-13T06:41:07;29.63;;;16.52;;
48881;SDS011;57063;51.406;-2.402;2023-02-13T06:43:33;28.02;;;16.48;;
48881;SDS011;57063;51.406;-2.402;2023-02-13T06:45:58;23.50;;;14.57;;
48881;SDS011;57063;51.406;-2.402;2023-02-13T06:48:24;26.80;;;15.15;;
48881;SDS011;57063;51.406;-2.402;2023-02-13T06:50:50;26.33;;;15.70;;
48881;SDS011;57063;51.406;-2.402;2023-02-13T06:53:18;30.38;;;16.33;;
48881;SDS011;57063;51.406;-2.402;2023-02-13T06:55:49;26.02;;;16.30;;
48881;SDS011;57063;51.406;-2.402;2023-02-13T06:58:18;32.97;;;16.15;;
48881;SDS011;57063;51.406;-2.402;2023-02-13T07:00:45;23.58;;;15.75;;
48881;SDS011;57063;51.406;-2.402;2023-02-13T07:03:10;25.08;;;16.15;;
48881;SDS011;57063;51.406;-2.402;2023-02-13T07:05:38;24.73;;;16.42;;
48881;SDS011;57063;51.406;-2.402;2023-02-13T07:08:05;29.75;;;16.50;;
48881;SDS011;57063;51.406;-2.402;2023-02-13T07:10:31;30.63;;;17.55;;
48881;SDS011;57063;51.406;-2.402;2023-02-13T07:12:57;33.20;;;17.73;;
48881;SDS011;57063;51.406;-2.402;2023-02-13T07:15:22;30.13;;;16.95;;
48881;SDS011;57063;51.406;-2.402;2023-02-13T07:17:53;28.80;;;17.13;;
48881;SDS011;57063;51.406;-2.402;2023-02-13T07:20:20;29.50;;;16.92;;
48881;SDS011;57063;51.406;-2.402;2023-02-13T07:22:45;28.17;;;16.75;;
48881;SDS011;57063;51.406;-2.402;2023-02-13T07:25:11;28.58;;;17.55;;
48881;SDS011;57063;51.406;-2.402;2023-02-13T07:27:36;29.52;;;17.23;;
48881;SDS011;57063;51.406;-2.402;2023-02-13T07:30:02;31.63;;;18.05;;
48881;SDS011;57063;51.406;-2.402;2023-02-13T07:32:28;30.52;;;17.17;;
48881;SDS011;57063;51.406;-2.402;2023-02-13T07:34:53;26.20;;;16.50;;
48881;SDS011;57063;51.406;-2.402;2023-02-13T07:37:19;31.30;;;18.08;;
48881;SDS011;57063;51.406;-2.402;2023-02-13T07:39:44;28.58;;;15.93;;
48881;SDS011;57063;51.406;-2.402;2023-02-13T07:42:10;30.00;;;16.67;;
48881;SDS011;57063;51.406;-2.402;2023-02-13T07:44:35;28.83;;;17.20;;
48881;SDS011;57063;51.406;-2.402;2023-02-13T07:47:01;32.28;;;18.20;;
48881;SDS011;57063;51.406;-2.402;2023-02-13T07:49:26;28.08;;;16.65;;
48881;SDS011;57063;51.406;-2.402;2023-02-13T07:52:00;36.53;;;17.25;;
48881;SDS011;57063;51.406;-2.402;2023-02-13T07:54:29;24.92;;;15.68;;
48881;SDS011;57063;51.406;-2.402;2023-02-13T07:56:55;31.38;;;17.00;;
48881;SDS011;57063;51.406;-2.402;2023-02-13T07:59:21;28.92;;;16.73;;
48881;SDS011;57063;51.406;-2.402;2023-02-13T08:01:47;33.10;;;17.52;;
48881;SDS011;57063;51.406;-2.402;2023-02-13T08:04:12;31.58;;;17.38;;
48881;SDS011;57063;51.406;-2.402;2023-02-13T08:06:38;30.10;;;17.35;;
48881;SDS011;57063;51.406;-2.402;2023-02-13T08:09:04;38.15;;;18.08;;
48881;SDS011;57063;51.406;-2.402;2023-02-13T08:11:48;31.60;;;18.02;;
48881;SDS011;57063;51.406;-2.402;2023-02-13T08:14:19;35.33;;;17.23;;
48881;SDS011;57063;51.406;-2.402;2023-02-13T08:16:46;30.40;;;18.80;;
48881;SDS011;57063;51.406;-2.402;2023-02-13T08:19:11;32.05;;;18.00;;
48881;SDS011;57063;51.406;-2.402;2023-02-13T08:21:37;32.17;;;19.33;;
48881;SDS011;57063;51.406;-2.402;2023-02-13T08:24:05;32.90;;;17.83;;
48881;SDS011;57063;51.406;-2.402;2023-02-13T08:26:31;28.40;;;17.33;;
48881;SDS011;57063;51.406;-2.402;2023-02-13T08:28:57;31.58;;;18.05;;
48881;SDS011;57063;51.406;-2.402;2023-02-13T08:31:23;33.08;;;18.85;;
48881;SDS011;57063;51.406;-2.402;2023-02-13T08:33:49;33.45;;;18.08;;
48881;SDS011;57063;51.406;-2.402;2023-02-13T08:36:14;34.22;;;18.35;;
48881;SDS011;57063;51.406;-2.402;2023-02-13T08:38:40;32.15;;;19.42;;
48881;SDS011;57063;51.406;-2.402;2023-02-13T08:41:06;77.47;;;23.52;;
48881;SDS011;57063;51.406;-2.402;2023-02-13T08:43:31;35.80;;;19.92;;
48881;SDS011;57063;51.406;-2.402;2023-02-13T08:45:57;31.48;;;19.33;;
48881;SDS011;57063;51.406;-2.402;2023-02-13T08:48:24;39.25;;;19.88;;
48881;SDS011;57063;51.406;-2.402;2023-02-13T08:50:50;32.47;;;20.17;;
48881;SDS011;57063;51.406;-2.402;2023-02-13T08:53:16;41.88;;;21.58;;
48881;SDS011;57063;51.406;-2.402;2023-02-13T08:55:41;35.20;;;20.80;;
48881;SDS011;57063;51.406;-2.402;2023-02-13T08:58:07;57.17;;;23.30;;
48881;SDS011;57063;51.406;-2.402;2023-02-13T09:00:32;34.03;;;20.75;;
48881;SDS011;57063;51.406;-2.402;2023-02-13T09:03:01;47.58;;;21.80;;
48881;SDS011;57063;51.406;-2.402;2023-02-13T09:05:28;36.13;;;21.15;;
48881;SDS011;57063;51.406;-2.402;2023-02-13T09:07:58;34.85;;;21.77;;
48881;SDS011;57063;51.406;-2.402;2023-02-13T09:10:24;34.20;;;23.02;;
48881;SDS011;57063;51.406;-2.402;2023-02-13T09:12:53;35.70;;;21.85;;
48881;SDS011;57063;51.406;-2.402;2023-02-13T09:15:18;36.13;;;21.42;;
48881;SDS011;57063;51.406;-2.402;2023-02-13T09:17:44;35.47;;;21.23;;
48881;SDS011;57063;51.406;-2.402;2023-02-13T09:20:09;41.38;;;21.92;;
48881;SDS011;57063;51.406;-2.402;2023-02-13T09:22:38;41.20;;;22.48;;
48881;SDS011;57063;51.406;-2.402;2023-02-13T09:25:05;40.25;;;22.17;;
48881;SDS011;57063;51.406;-2.402;2023-02-13T09:27:31;38.67;;;21.85;;
48881;SDS011;57063;51.406;-2.402;2023-02-13T09:29:57;38.88;;;21.38;;
48881;SDS011;57063;51.406;-2.402;2023-02-13T09:32:24;34.55;;;21.08;;
48881;SDS011;57063;51.406;-2.402;2023-02-13T09:34:50;44.88;;;21.50;;
48881;SDS011;57063;51.406;-2.402;2023-02-13T09:37:15;40.47;;;21.50;;
48881;SDS011;57063;51.406;-2.402;2023-02-13T09:39:41;42.72;;;23.17;;
48881;SDS011;57063;51.406;-2.402;2023-02-13T09:42:13;33.50;;;19.25;;
48881;SDS011;57063;51.406;-2.402;2023-02-13T09:44:43;32.53;;;19.23;;
48881;SDS011;57063;51.406;-2.402;2023-02-13T09:47:30;37.53;;;20.42;;
48881;SDS011;57063;51.406;-2.402;2023-02-13T09:50:06;43.22;;;20.77;;
48881;SDS011;57063;51.406;-2.402;2023-02-13T09:52:35;32.35;;;20.88;;
48881;SDS011;57063;51.406;-2.402;2023-02-13T09:55:03;32.67;;;17.73;;
48881;SDS011;57063;51.406;-2.402;2023-02-13T09:57:50;35.30;;;20.98;;
48881;SDS011;57063;51.406;-2.402;2023-02-13T10:00:41;32.60;;;20.10;;
48881;SDS011;57063;51.406;-2.402;2023-02-13T10:06:21;31.58;;;20.08;;
48881;SDS011;57063;51.406;-2.402;2023-02-13T10:09:05;30.25;;;19.15;;
48881;SDS011;57063;51.406;-2.402;2023-02-13T10:20:06;32.35;;;19.08;;
48881;SDS011;57063;51.406;-2.402;2023-02-13T10:22:43;32.50;;;18.58;;
48881;SDS011;57063;51.406;-2.402;2023-02-13T10:25:18;28.10;;;17.65;;
48881;SDS011;57063;51.406;-2.402;2023-02-13T10:27:51;34.47;;;19.42;;
48881;SDS011;57063;51.406;-2.402;2023-02-13T10:30:24;32.55;;;20.38;;
48881;SDS011;57063;51.406;-2.402;2023-02-13T10:35:50;40.72;;;21.30;;
48881;SDS011;57063;51.406;-2.402;2023-02-13T10:38:23;28.77;;;17.95;;
48881;SDS011;57063;51.406;-2.402;2023-02-13T10:43:37;28.95;;;18.35;;
48881;SDS011;57063;51.406;-2.402;2023-02-13T10:46:21;25.83;;;18.25;;
48881;SDS011;57063;51.406;-2.402;2023-02-13T10:49:20;24.30;;;17.75;;
48881;SDS011;57063;51.406;-2.402;2023-02-13T10:58:04;30.80;;;18.52;;
48881;SDS011;57063;51.406;-2.402;2023-02-13T11:00:55;24.35;;;17.05;;
48881;SDS011;57063;51.406;-2.402;2023-02-13T11:03:22;29.77;;;17.58;;
48881;SDS011;57063;51.406;-2.402;2023-02-13T11:05:50;28.95;;;18.08;;
48881;SDS011;57063;51.406;-2.402;2023-02-13T11:08:19;27.25;;;16.52;;
48881;SDS011;57063;51.406;-2.402;2023-02-13T11:10:47;46.88;;;18.77;;
48881;SDS011;57063;51.406;-2.402;2023-02-13T11:13:14;24.02;;;16.15;;
48881;SDS011;57063;51.406;-2.402;2023-02-13T11:15:57;26.35;;;16.88;;
48881;SDS011;57063;51.406;-2.402;2023-02-13T11:18:30;25.45;;;17.55;;
48881;SDS011;57063;51.406;-2.402;2023-02-13T11:20:59;24.63;;;17.40;;
48881;SDS011;57063;51.406;-2.402;2023-02-13T11:25:56;25.80;;;17.00;;
48881;SDS011;57063;51.406;-2.402;2023-02-13T11:28:24;25.33;;;17.88;;
48881;SDS011;57063;51.406;-2.402;2023-02-13T11:30:53;22.92;;;17.08;;
48881;SDS011;57063;51.406;-2.402;2023-02-13T11:33:38;22.60;;;16.02;;
48881;SDS011;57063;51.406;-2.402;2023-02-13T11:36:07;23.55;;;17.25;;
48881;SDS011;57063;51.406;-2.402;2023-02-13T11:38:37;22.33;;;15.95;;
48881;SDS011;57063;51.406;-2.402;2023-02-13T11:41:08;34.38;;;19.58;;
48881;SDS011;57063;51.406;-2.402;2023-02-13T11:43:36;26.92;;;16.98;;
48881;SDS011;57063;51.406;-2.402;2023-02-13T11:46:17;24.02;;;17.42;;
48881;SDS011;57063;51.406;-2.402;2023-02-13T11:51:31;23.52;;;15.98;;
48881;SDS011;57063;51.406;-2.402;2023-02-13T11:54:21;26.63;;;16.17;;
48881;SDS011;57063;51.406;-2.402;2023-02-13T11:57:14;27.00;;;17.17;;
48881;SDS011;57063;51.406;-2.402;2023-02-13T11:59:53;51.30;;;18.90;;
48881;SDS011;57063;51.406;-2.402;2023-02-13T12:02:24;28.60;;;17.85;;
48881;SDS011;57063;51.406;-2.402;2023-02-13T12:04:52;23.83;;;17.08;;
48881;SDS011;57063;51.406;-2.402;2023-02-13T12:07:37;25.48;;;16.95;;
48881;SDS011;57063;51.406;-2.402;2023-02-13T12:15:28;23.25;;;16.38;;
48881;SDS011;57063;51.406;-2.402;2023-02-13T12:26:31;28.63;;;18.65;;
48881;SDS011;57063;51.406;-2.402;2023-02-13T12:39:36;23.58;;;16.35;;
48881;SDS011;57063;51.406;-2.402;2023-02-13T12:48:51;23.67;;;16.60;;
48881;SDS011;57063;51.406;-2.402;2023-02-13T12:51:24;22.20;;;16.60;;
48881;SDS011;57063;51.406;-2.402;2023-02-13T12:54:03;23.83;;;16.58;;
48881;SDS011;57063;51.406;-2.402;2023-02-13T12:57:21;22.10;;;16.10;;
48881;SDS011;57063;51.406;-2.402;2023-02-13T13:10:52;22.40;;;15.93;;
48881;SDS011;57063;51.406;-2.402;2023-02-13T13:13:32;22.75;;;16.08;;
48881;SDS011;57063;51.406;-2.402;2023-02-13T13:16:02;23.85;;;15.82;;
48881;SDS011;57063;51.406;-2.402;2023-02-13T13:26:46;27.27;;;17.63;;
48881;SDS011;57063;51.406;-2.402;2023-02-13T13:34:27;26.52;;;17.73;;
48881;SDS011;57063;51.406;-2.402;2023-02-13T13:37:02;22.27;;;16.25;;
48881;SDS011;57063;51.406;-2.402;2023-02-13T13:47:46;23.88;;;16.73;;
48881;SDS011;57063;51.406;-2.402;2023-02-13T13:50:21;22.52;;;16.25;;
48881;SDS011;57063;51.406;-2.402;2023-02-13T14:03:38;21.85;;;15.80;;
48881;SDS011;57063;51.406;-2.402;2023-02-13T14:06:08;23.98;;;16.73;;
48881;SDS011;57063;51.406;-2.402;2023-02-13T14:11:02;24.52;;;16.73;;
48881;SDS011;57063;51.406;-2.402;2023-02-13T14:13:29;25.58;;;16.58;;
48881;SDS011;57063;51.406;-2.402;2023-02-13T14:16:02;22.75;;;17.30;;
48881;SDS011;57063;51.406;-2.402;2023-02-13T14:18:29;23.42;;;17.08;;
48881;SDS011;57063;51.406;-2.402;2023-02-13T14:20:57;30.92;;;18.52;;
48881;SDS011;57063;51.406;-2.402;2023-02-13T14:31:27;26.35;;;18.50;;
48881;SDS011;57063;51.406;-2.402;2023-02-13T14:33:58;22.70;;;17.10;;
48881;SDS011;57063;51.406;-2.402;2023-02-13T14:36:27;28.35;;;18.17;;
48881;SDS011;57063;51.406;-2.402;2023-02-13T14:39:04;37.75;;;17.95;;
48881;SDS011;57063;51.406;-2.402;2023-02-13T14:44:21;31.83;;;19.73;;
48881;SDS011;57063;51.406;-2.402;2023-02-13T14:46:48;24.88;;;18.35;;
48881;SDS011;57063;51.406;-2.402;2023-02-13T14:49:24;25.27;;;18.25;;
48881;SDS011;57063;51.406;-2.402;2023-02-13T14:51:54;23.10;;;17.83;;
48881;SDS011;57063;51.406;-2.402;2023-02-13T14:59:56;36.83;;;18.92;;
48881;SDS011;57063;51.406;-2.402;2023-02-13T15:02:30;25.30;;;18.70;;
48881;SDS011;57063;51.406;-2.402;2023-02-13T15:05:20;48.67;;;20.27;;
48881;SDS011;57063;51.406;-2.402;2023-02-13T15:08:02;28.00;;;18.98;;
48881;SDS011;57063;51.406;-2.402;2023-02-13T15:10:44;23.98;;;17.52;;
48881;SDS011;57063;51.406;-2.402;2023-02-13T15:13:21;27.20;;;19.08;;
48881;SDS011;57063;51.406;-2.402;2023-02-13T15:15:58;26.20;;;17.63;;
48881;SDS011;57063;51.406;-2.402;2023-02-13T15:18:38;32.75;;;18.50;;
48881;SDS011;57063;51.406;-2.402;2023-02-13T15:21:08;31.30;;;18.33;;
48881;SDS011;57063;51.406;-2.402;2023-02-13T15:23:40;23.17;;;17.40;;
48881;SDS011;57063;51.406;-2.402;2023-02-13T15:26:06;23.60;;;17.58;;
48881;SDS011;57063;51.406;-2.402;2023-02-13T15:28:33;27.80;;;17.80;;
48881;SDS011;57063;51.406;-2.402;2023-02-13T15:33:47;34.45;;;19.10;;
48881;SDS011;57063;51.406;-2.402;2023-02-13T15:44:53;25.80;;;18.48;;
48881;SDS011;57063;51.406;-2.402;2023-02-13T15:47:50;26.50;;;17.90;;
48881;SDS011;57063;51.406;-2.402;2023-02-13T15:50:26;26.67;;;18.27;;
48881;SDS011;57063;51.406;-2.402;2023-02-13T15:52:55;25.92;;;18.65;;
48881;SDS011;57063;51.406;-2.402;2023-02-13T15:55:25;26.50;;;19.35;;
48881;SDS011;57063;51.406;-2.402;2023-02-13T16:01:40;26.67;;;18.20;;
48881;SDS011;57063;51.406;-2.402;2023-02-13T16:06:45;28.05;;;17.40;;
48881;SDS011;57063;51.406;-2.402;2023-02-13T16:09:25;24.92;;;17.80;;
48881;SDS011;57063;51.406;-2.402;2023-02-13T16:14:54;29.08;;;17.75;;
48881;SDS011;57063;51.406;-2.402;2023-02-13T16:22:17;24.70;;;17.55;;
48881;SDS011;57063;51.406;-2.402;2023-02-13T16:24:49;25.08;;;17.00;;
48881;SDS011;57063;51.406;-2.402;2023-02-13T16:27:19;27.55;;;17.33;;
48881;SDS011;57063;51.406;-2.402;2023-02-13T16:29:59;26.93;;;19.23;;
48881;SDS011;57063;51.406;-2.402;2023-02-13T16:32:32;27.63;;;17.25;;
48881;SDS011;57063;51.406;-2.402;2023-02-13T16:37:58;26.75;;;18.23;;
48881;SDS011;57063;51.406;-2.402;2023-02-13T16:46:16;24.00;;;17.85;;
48881;SDS011;57063;51.406;-2.402;2023-02-13T16:51:23;28.70;;;19.95;;
48881;SDS011;57063;51.406;-2.402;2023-02-13T16:54:14;29.77;;;20.75;;
48881;SDS011;57063;51.406;-2.402;2023-02-13T16:57:03;30.50;;;20.50;;
48881;SDS011;57063;51.406;-2.402;2023-02-13T16:59:33;33.72;;;21.35;;
48881;SDS011;57063;51.406;-2.402;2023-02-13T17:04:41;30.83;;;20.80;;
48881;SDS011;57063;51.406;-2.402;2023-02-13T17:07:17;28.65;;;20.38;;
48881;SDS011;57063;51.406;-2.402;2023-02-13T17:10:01;31.98;;;21.75;;
48881;SDS011;57063;51.406;-2.402;2023-02-13T17:15:47;30.10;;;20.67;;
48881;SDS011;57063;51.406;-2.402;2023-02-13T17:18:36;29.50;;;21.38;;
48881;SDS011;57063;51.406;-2.402;2023-02-13T17:21:14;33.67;;;20.88;;
48881;SDS011;57063;51.406;-2.402;2023-02-13T17:23:40;33.28;;;21.63;;
48881;SDS011;57063;51.406;-2.402;2023-02-13T17:26:13;33.50;;;21.58;;
48881;SDS011;57063;51.406;-2.402;2023-02-13T17:28:39;30.33;;;21.02;;
48881;SDS011;57063;51.406;-2.402;2023-02-13T17:31:04;36.00;;;22.40;;
48881;SDS011;57063;51.406;-2.402;2023-02-13T17:33:35;36.90;;;22.03;;
48881;SDS011;57063;51.406;-2.402;2023-02-13T17:36:04;36.47;;;22.52;;
48881;SDS011;57063;51.406;-2.402;2023-02-13T17:38:30;34.33;;;22.55;;
48881;SDS011;57063;51.406;-2.402;2023-02-13T17:40:55;38.72;;;22.95;;
48881;SDS011;57063;51.406;-2.402;2023-02-13T17:43:21;38.58;;;23.42;;
48881;SDS011;57063;51.406;-2.402;2023-02-13T17:45:47;36.33;;;22.95;;
48881;SDS011;57063;51.406;-2.402;2023-02-13T17:48:16;36.58;;;24.45;;
48881;SDS011;57063;51.406;-2.402;2023-02-13T17:50:42;35.97;;;23.67;;
48881;SDS011;57063;51.406;-2.402;2023-02-13T17:53:20;34.92;;;23.40;;
48881;SDS011;57063;51.406;-2.402;2023-02-13T17:58:21;39.88;;;22.33;;
48881;SDS011;57063;51.406;-2.402;2023-02-13T18:00:47;39.65;;;24.70;;
48881;SDS011;57063;51.406;-2.402;2023-02-13T18:06:09;38.53;;;25.95;;
48881;SDS011;57063;51.406;-2.402;2023-02-13T18:08:37;42.10;;;26.75;;
48881;SDS011;57063;51.406;-2.402;2023-02-13T18:11:08;48.20;;;27.23;;
48881;SDS011;57063;51.406;-2.402;2023-02-13T18:13:34;46.47;;;27.27;;
48881;SDS011;57063;51.406;-2.402;2023-02-13T18:16:18;41.55;;;26.20;;